createdAt,value
2022-10-07T00:00:52.532Z,9.30
2022-10-07T00:03:20.423Z,10.40
2022-10-07T00:05:47.766Z,8.57
2022-10-07T00:08:15.076Z,8.50
2022-10-07T00:10:43.012Z,7.60
2022-10-07T00:13:10.538Z,9.63
2022-10-07T00:15:37.933Z,8.87
2022-10-07T00:18:05.423Z,9.10
2022-10-07T00:20:37.326Z,9.03
2022-10-07T00:23:05.072Z,8.63
2022-10-07T00:25:32.363Z,9.23
2022-10-07T00:27:59.941Z,8.50
2022-10-07T00:30:27.351Z,8.70
2022-10-07T00:32:54.718Z,8.80
2022-10-07T00:35:21.887Z,9.27
2022-10-07T00:37:49.135Z,7.90
2022-10-07T00:40:16.371Z,8.57
2022-10-07T00:42:43.561Z,8.90
2022-10-07T00:45:17.305Z,9.30
2022-10-07T00:47:45.201Z,7.40
2022-10-07T00:50:15.011Z,7.57
2022-10-07T00:52:45.355Z,8.03
2022-10-07T00:55:13.038Z,8.07
2022-10-07T00:57:40.325Z,9.17
2022-10-07T01:00:07.948Z,8.97
2022-10-07T01:02:35.810Z,7.53
2022-10-07T01:05:04.327Z,8.67
2022-10-07T01:07:31.529Z,8.43
2022-10-07T01:09:59.571Z,8.27
2022-10-07T01:12:32.237Z,7.97
2022-10-07T01:14:59.372Z,8.87
2022-10-07T01:17:28.608Z,9.07
2022-10-07T01:20:15.241Z,9.10
2022-10-07T01:22:46.535Z,7.90
2022-10-07T01:25:19.396Z,8.43
2022-10-07T01:27:53.966Z,9.00
2022-10-07T01:30:21.294Z,8.33
2022-10-07T01:32:53.205Z,7.57
2022-10-07T01:35:24.678Z,7.67
2022-10-07T01:37:53.574Z,8.93
2022-10-07T01:40:22.169Z,8.50
2022-10-07T01:42:49.511Z,8.20
2022-10-07T01:45:21.196Z,8.10
2022-10-07T01:47:52.042Z,7.90
2022-10-07T01:50:19.761Z,7.70
2022-10-07T01:56:19.921Z,8.00
2022-10-07T01:59:06.906Z,7.03
2022-10-07T02:01:37.175Z,8.33
2022-10-07T02:04:04.779Z,8.70
2022-10-07T02:06:35.227Z,8.10
2022-10-07T02:09:03.098Z,9.50
2022-10-07T02:11:30.619Z,9.27
2022-10-07T02:14:01.398Z,8.30
2022-10-07T02:16:29.133Z,8.60
2022-10-07T02:18:57.145Z,8.53
2022-10-07T02:21:26.453Z,8.87
2022-10-07T02:23:53.933Z,9.00
2022-10-07T02:26:22.046Z,7.73
2022-10-07T02:28:49.599Z,8.70
2022-10-07T02:31:17.819Z,7.50
2022-10-07T02:33:45.106Z,8.93
2022-10-07T02:36:13.480Z,8.40
2022-10-07T02:38:40.629Z,8.07
2022-10-07T02:41:13.816Z,8.77
2022-10-07T02:43:47.623Z,7.80
2022-10-07T02:46:35.597Z,7.97
2022-10-07T02:49:03.569Z,7.50
2022-10-07T02:51:35.403Z,9.07
2022-10-07T02:54:02.984Z,9.73
2022-10-07T02:56:30.445Z,7.80
2022-10-07T02:58:57.577Z,7.10
2022-10-07T03:01:26.780Z,8.10
2022-10-07T03:03:54.655Z,7.80
2022-10-07T03:06:22.650Z,7.30
2022-10-07T03:08:49.868Z,7.33
2022-10-07T03:11:16.937Z,8.33
2022-10-07T03:13:45.806Z,7.73
2022-10-07T03:16:13.038Z,6.10
2022-10-07T03:18:40.488Z,6.93
2022-10-07T03:21:08.625Z,7.70
2022-10-07T03:23:35.875Z,6.27
2022-10-07T03:26:03.030Z,5.63
2022-10-07T03:28:31.250Z,6.33
2022-10-07T03:31:08.269Z,7.10
2022-10-07T03:33:37.319Z,6.90
2022-10-07T03:36:05.905Z,5.63
2022-10-07T03:38:33.659Z,5.83
2022-10-07T03:41:04.806Z,7.43
2022-10-07T03:43:32.332Z,6.83
2022-10-07T03:46:02.319Z,6.90
2022-10-07T03:48:30.700Z,6.60
2022-10-07T03:50:57.820Z,7.07
2022-10-07T03:53:26.131Z,5.53
2022-10-07T03:55:53.329Z,5.80
2022-10-07T03:58:20.540Z,6.40
2022-10-07T04:00:47.883Z,6.50
2022-10-07T04:03:15.774Z,6.43
2022-10-07T04:05:43.450Z,7.67
2022-10-07T04:08:11.861Z,7.03
2022-10-07T04:10:38.975Z,6.33
2022-10-07T04:13:06.175Z,7.50
2022-10-07T04:15:33.848Z,6.67
2022-10-07T04:18:01.018Z,6.77
2022-10-07T04:20:28.156Z,7.33
2022-10-07T04:22:55.307Z,5.87
2022-10-07T04:25:34.457Z,7.07
2022-10-07T04:28:15.337Z,6.73
2022-10-07T04:30:43.829Z,6.53
2022-10-07T04:33:11.605Z,6.43
2022-10-07T04:35:39.049Z,5.90
2022-10-07T04:38:08.687Z,7.40
2022-10-07T04:40:38.575Z,7.00
2022-10-07T04:43:21.084Z,7.00
2022-10-07T04:45:48.644Z,6.60
2022-10-07T04:48:17.864Z,7.83
2022-10-07T04:50:45.045Z,6.70
2022-10-07T04:53:14.281Z,6.00
2022-10-07T04:55:42.200Z,6.73
2022-10-07T04:58:09.489Z,8.47
2022-10-07T05:00:36.738Z,7.13
2022-10-07T05:03:03.911Z,7.20
2022-10-07T05:05:31.101Z,6.63
2022-10-07T05:07:58.251Z,6.97
2022-10-07T05:10:25.383Z,6.80
2022-10-07T05:12:55.860Z,6.90
2022-10-07T05:15:23.705Z,7.30
2022-10-07T05:17:56.094Z,7.50
2022-10-07T05:20:23.471Z,8.17
2022-10-07T05:22:50.681Z,7.40
2022-10-07T05:25:17.805Z,6.03
2022-10-07T05:27:45.174Z,7.73
2022-10-07T05:30:12.869Z,6.87
2022-10-07T05:32:40.117Z,7.70
2022-10-07T05:35:07.349Z,8.97
2022-10-07T05:37:34.674Z,6.73
2022-10-07T05:40:01.777Z,9.10
2022-10-07T05:42:28.924Z,7.00
2022-10-07T05:44:56.068Z,7.20
2022-10-07T05:47:23.160Z,7.90
2022-10-07T05:49:50.330Z,7.57
2022-10-07T05:52:18.929Z,8.47
2022-10-07T05:54:46.758Z,8.93
2022-10-07T05:57:13.943Z,9.00
2022-10-07T05:59:42.588Z,9.73
2022-10-07T06:02:13.580Z,9.90
2022-10-07T06:04:44.096Z,10.00
2022-10-07T06:07:11.616Z,9.10
2022-10-07T06:09:57.452Z,10.17
2022-10-07T06:12:43.359Z,10.20
2022-10-07T06:15:10.734Z,9.23
2022-10-07T06:17:42.296Z,10.17
2022-10-07T06:20:09.920Z,10.03
2022-10-07T06:22:37.005Z,10.77
2022-10-07T06:25:04.206Z,10.80
2022-10-07T06:27:31.328Z,9.90
2022-10-07T06:29:58.581Z,10.27
2022-10-07T06:32:25.736Z,10.53
2022-10-07T06:34:52.809Z,10.97
2022-10-07T06:37:20.641Z,10.07
2022-10-07T06:39:47.780Z,11.03
2022-10-07T06:42:14.965Z,11.50
2022-10-07T06:44:43.012Z,10.33
2022-10-07T06:47:11.850Z,12.07
2022-10-07T06:49:39.204Z,11.20
2022-10-07T06:52:06.359Z,11.03
2022-10-07T06:54:34.549Z,10.10
2022-10-07T06:57:01.643Z,9.80
2022-10-07T06:59:28.724Z,11.00
2022-10-07T07:01:55.857Z,11.40
2022-10-07T07:04:29.351Z,10.73
2022-10-07T07:06:56.448Z,10.47
2022-10-07T07:09:23.527Z,10.63
2022-10-07T07:11:52.938Z,12.43
2022-10-07T07:14:23.013Z,9.73
2022-10-07T07:16:50.244Z,11.00
2022-10-07T07:19:17.405Z,11.70
2022-10-07T07:21:47.695Z,10.67
2022-10-07T07:24:17.605Z,10.10
2022-10-07T07:26:44.663Z,9.33
2022-10-07T07:29:12.135Z,11.93
2022-10-07T07:31:39.648Z,9.57
2022-10-07T07:34:08.737Z,8.73
2022-10-07T07:36:36.337Z,9.37
2022-10-07T07:39:08.484Z,8.77
2022-10-07T07:41:36.078Z,8.63
2022-10-07T07:44:04.378Z,8.00
2022-10-07T07:46:36.324Z,8.43
2022-10-07T07:49:03.888Z,9.00
2022-10-07T07:51:30.986Z,9.90
2022-10-07T07:53:59.751Z,10.13
2022-10-07T07:56:29.149Z,9.93
2022-10-07T07:58:56.696Z,12.87
2022-10-07T08:01:23.844Z,10.00
2022-10-07T08:03:51.043Z,9.20
2022-10-07T08:06:19.414Z,9.00
2022-10-07T08:08:46.602Z,8.87
2022-10-07T08:11:14.429Z,9.37
2022-10-07T08:13:41.844Z,11.60
2022-10-07T08:16:09.434Z,9.20
2022-10-07T08:18:38.975Z,9.03
2022-10-07T08:21:07.615Z,11.57
2022-10-07T08:23:38.002Z,10.53
2022-10-07T08:26:05.208Z,10.10
2022-10-07T08:28:32.454Z,10.40
2022-10-07T08:31:09.690Z,11.37
2022-10-07T08:33:37.583Z,11.30
2022-10-07T08:36:05.218Z,10.20
2022-10-07T08:38:32.850Z,10.77
2022-10-07T08:41:05.853Z,10.90
2022-10-07T08:43:33.105Z,12.40
2022-10-07T08:46:00.683Z,14.10
2022-10-07T08:48:30.217Z,11.00
2022-10-07T08:51:16.211Z,12.03
2022-10-07T08:53:44.554Z,9.57
2022-10-07T08:56:15.485Z,11.40
2022-10-07T08:58:43.395Z,10.97
2022-10-07T09:01:17.842Z,10.53
2022-10-07T09:03:45.034Z,13.30
2022-10-07T09:06:13.941Z,10.10
2022-10-07T09:08:42.494Z,11.17
2022-10-07T09:11:18.633Z,10.50
2022-10-07T09:13:47.906Z,10.37
2022-10-07T09:16:16.643Z,11.83
2022-10-07T09:18:50.672Z,10.53
2022-10-07T09:21:19.927Z,12.53
2022-10-07T09:23:47.223Z,11.50
2022-10-07T09:26:15.068Z,9.83
2022-10-07T09:28:42.244Z,10.57
2022-10-07T09:31:10.971Z,11.10
2022-10-07T09:33:41.415Z,10.70
2022-10-07T09:36:09.365Z,10.73
2022-10-07T09:38:37.506Z,10.77
2022-10-07T09:41:17.886Z,10.43
2022-10-07T09:44:23.833Z,10.67
2022-10-07T09:46:53.172Z,12.23
2022-10-07T09:49:26.470Z,12.40
2022-10-07T09:52:06.527Z,14.57
2022-10-07T09:54:34.344Z,12.30
2022-10-07T09:57:03.447Z,13.67
2022-10-07T09:59:31.367Z,14.03
2022-10-07T10:02:02.658Z,14.80
2022-10-07T10:04:33.820Z,14.27
2022-10-07T10:07:07.746Z,15.57
2022-10-07T10:09:35.204Z,16.33
2022-10-07T10:12:03.270Z,16.07
2022-10-07T10:14:36.499Z,14.10
2022-10-07T10:17:04.972Z,15.73
2022-10-07T10:19:36.443Z,17.43
2022-10-07T10:22:04.486Z,15.37
2022-10-07T10:24:50.275Z,17.13
2022-10-07T10:27:25.687Z,16.03
2022-10-07T10:29:52.774Z,16.43
2022-10-07T10:32:34.960Z,15.80
2022-10-07T10:35:15.251Z,17.57
2022-10-07T10:37:42.275Z,16.93
2022-10-07T10:40:09.460Z,15.00
2022-10-07T10:42:44.360Z,14.27
2022-10-07T10:45:30.570Z,14.77
2022-10-07T10:47:59.011Z,16.83
2022-10-07T10:50:35.756Z,15.17
2022-10-07T10:53:18.094Z,16.47
2022-10-07T10:56:04.070Z,18.30
2022-10-07T10:58:39.842Z,15.33
2022-10-07T11:01:12.512Z,17.10
2022-10-07T11:03:59.039Z,13.77
2022-10-07T11:06:28.437Z,13.97
2022-10-07T11:08:55.630Z,12.87
2022-10-07T11:11:22.736Z,14.30
2022-10-07T11:13:55.977Z,12.73
2022-10-07T11:16:27.784Z,16.67
2022-10-07T11:19:09.736Z,14.83
2022-10-07T11:21:55.540Z,13.20
2022-10-07T11:24:45.044Z,13.70
2022-10-07T11:27:24.163Z,13.07
2022-10-07T11:30:07.921Z,12.63
2022-10-07T11:32:35.734Z,11.63
2022-10-07T11:35:14.656Z,12.60
2022-10-07T11:37:46.307Z,12.50
2022-10-07T11:40:13.387Z,14.10
2022-10-07T11:42:48.576Z,14.10
2022-10-07T11:45:19.344Z,12.27
2022-10-07T11:48:03.185Z,12.10
2022-10-07T11:50:31.282Z,13.10
2022-10-07T11:53:01.474Z,13.33
2022-10-07T11:55:55.375Z,14.63
2022-10-07T11:58:37.117Z,11.37
2022-10-07T12:01:23.121Z,11.03
2022-10-07T12:03:50.181Z,11.57
2022-10-07T12:06:17.288Z,11.83
2022-10-07T12:08:44.818Z,11.60
2022-10-07T12:11:14.966Z,11.30
2022-10-07T12:13:43.664Z,11.17
2022-10-07T12:16:32.595Z,10.90
2022-10-07T12:19:09.811Z,11.17
2022-10-07T12:21:59.279Z,9.57
2022-10-07T12:24:26.878Z,9.67
2022-10-07T12:26:55.548Z,12.13
2022-10-07T12:29:27.563Z,10.00
2022-10-07T12:31:54.709Z,12.27
2022-10-07T12:34:22.380Z,10.77
2022-10-07T12:36:49.465Z,9.47
2022-10-07T12:39:16.492Z,9.60
2022-10-07T12:41:45.241Z,12.07
2022-10-07T12:44:22.724Z,10.07
2022-10-07T12:47:00.857Z,9.43
2022-10-07T12:49:31.874Z,9.43
2022-10-07T12:51:59.853Z,8.83
2022-10-07T12:54:39.964Z,9.23
2022-10-07T12:57:11.771Z,9.17
2022-10-07T12:59:47.761Z,10.37
2022-10-07T13:02:24.294Z,11.03
2022-10-07T13:04:51.515Z,8.73
2022-10-07T13:07:24.358Z,8.80
2022-10-07T13:09:51.517Z,9.37
2022-10-07T13:12:37.407Z,9.27
2022-10-07T13:15:07.611Z,8.83
2022-10-07T13:17:44.630Z,8.50
2022-10-07T13:20:30.451Z,7.70
2022-10-07T13:22:57.550Z,10.87
2022-10-07T13:25:24.602Z,9.70
2022-10-07T13:27:55.123Z,9.60
2022-10-07T13:30:32.530Z,9.60
2022-10-07T13:33:17.956Z,8.63
2022-10-07T13:35:44.985Z,8.87
2022-10-07T13:38:41.402Z,7.60
2022-10-07T13:41:09.583Z,8.57
2022-10-07T13:43:36.791Z,8.00
2022-10-07T13:46:05.462Z,8.80
2022-10-07T13:48:35.926Z,8.50
2022-10-07T13:51:03.086Z,7.27
2022-10-07T13:53:31.548Z,9.60
2022-10-07T13:56:08.440Z,12.33
2022-10-07T13:58:35.550Z,7.43
2022-10-07T14:01:04.412Z,8.67
2022-10-07T14:03:31.509Z,8.30
2022-10-07T14:05:58.613Z,7.53
2022-10-07T14:08:29.691Z,6.67
2022-10-07T14:10:59.966Z,8.50
2022-10-07T14:13:28.991Z,7.93
2022-10-07T14:15:56.430Z,8.70
2022-10-07T14:18:23.590Z,8.87
2022-10-07T14:21:16.973Z,9.40
2022-10-07T14:23:44.272Z,9.87
2022-10-07T14:26:11.489Z,9.20
2022-10-07T14:28:39.118Z,9.43
2022-10-07T14:31:27.947Z,8.63
2022-10-07T14:34:16.676Z,10.17
2022-10-07T14:37:10.326Z,10.80
2022-10-07T14:39:50.031Z,11.80
2022-10-07T14:42:18.075Z,11.80
2022-10-07T14:44:45.263Z,11.90
2022-10-07T14:47:13.175Z,11.50
2022-10-07T14:49:42.341Z,12.33
2022-10-07T14:52:11.058Z,13.97
2022-10-07T14:54:38.144Z,12.10
2022-10-07T14:57:05.193Z,12.90
2022-10-07T14:59:32.285Z,19.60
2022-10-07T15:02:00.016Z,24.63
2022-10-07T15:04:27.311Z,15.53
2022-10-07T15:06:54.824Z,16.03
2022-10-07T15:09:21.888Z,24.07
2022-10-07T15:11:48.931Z,15.50
2022-10-07T15:14:16.008Z,14.60
2022-10-07T15:16:43.121Z,16.17
2022-10-07T15:19:10.307Z,12.70
2022-10-07T15:21:37.435Z,13.43
2022-10-07T15:24:04.546Z,13.07
2022-10-07T15:26:31.625Z,12.30
2022-10-07T15:28:58.775Z,12.67
2022-10-07T15:31:30.177Z,13.90
2022-10-07T15:33:57.723Z,12.33
2022-10-07T15:36:26.605Z,12.33
2022-10-07T15:38:54.302Z,13.57
2022-10-07T15:41:40.483Z,12.27
2022-10-07T15:44:08.639Z,13.03
2022-10-07T15:46:35.745Z,12.93
2022-10-07T15:49:04.483Z,12.87
2022-10-07T15:51:31.675Z,14.10
2022-10-07T15:53:58.929Z,13.47
2022-10-07T15:56:26.023Z,13.17
2022-10-07T15:58:53.249Z,14.37
2022-10-07T16:01:20.839Z,14.20
2022-10-07T16:03:48.816Z,15.50
2022-10-07T16:06:16.106Z,15.70
2022-10-07T16:08:43.159Z,14.70
2022-10-07T16:11:10.725Z,16.20
2022-10-07T16:13:38.235Z,13.97
2022-10-07T16:16:07.197Z,14.00
2022-10-07T16:18:36.655Z,16.40
2022-10-07T16:21:05.016Z,15.83
2022-10-07T16:23:32.903Z,14.17
2022-10-07T16:26:15.548Z,17.83
2022-10-07T16:29:02.191Z,15.80
2022-10-07T16:31:29.703Z,16.70
2022-10-07T16:33:56.856Z,15.93
2022-10-07T16:36:24.431Z,17.20
2022-10-07T16:38:52.091Z,19.13
2022-10-07T16:41:19.240Z,17.90
2022-10-07T16:43:46.340Z,15.90
2022-10-07T16:46:14.313Z,15.13
2022-10-07T16:48:42.219Z,17.37
2022-10-07T16:51:12.684Z,16.83
2022-10-07T16:53:40.178Z,18.97
2022-10-07T16:56:07.360Z,16.67
2022-10-07T16:58:34.483Z,16.70
2022-10-07T17:01:05.118Z,16.80
2022-10-07T17:03:32.261Z,16.57
2022-10-07T17:05:59.356Z,19.43
2022-10-07T17:08:26.450Z,18.23
2022-10-07T17:10:54.120Z,18.40
2022-10-07T17:13:21.223Z,18.73
2022-10-07T17:15:52.487Z,19.97
2022-10-07T17:18:19.870Z,22.73
2022-10-07T17:20:50.549Z,21.07
2022-10-07T17:23:17.698Z,19.00
2022-10-07T17:25:49.542Z,19.20
2022-10-07T17:28:17.784Z,18.47
2022-10-07T17:30:45.635Z,20.00
2022-10-07T17:33:16.904Z,17.70
2022-10-07T17:35:45.331Z,18.20
2022-10-07T17:38:12.439Z,20.00
2022-10-07T17:40:39.598Z,18.10
2022-10-07T17:43:07.047Z,19.00
2022-10-07T17:45:37.869Z,18.77
2022-10-07T17:48:05.074Z,19.80
2022-10-07T17:50:32.271Z,17.93
2022-10-07T17:53:00.775Z,20.57
2022-10-07T17:55:27.867Z,20.50
2022-10-07T17:57:54.975Z,20.70
2022-10-07T18:00:22.074Z,20.17
2022-10-07T18:02:50.550Z,23.23
2022-10-07T18:05:19.630Z,29.27
2022-10-07T18:07:48.539Z,24.53
2022-10-07T18:10:15.897Z,18.63
2022-10-07T18:13:01.793Z,21.63
2022-10-07T18:15:28.952Z,20.70
2022-10-07T18:17:57.371Z,19.03
2022-10-07T18:20:28.463Z,19.80
2022-10-07T18:22:56.140Z,19.70
2022-10-07T18:25:23.721Z,18.50
2022-10-07T18:27:51.113Z,19.27
2022-10-07T18:30:18.335Z,21.90
2022-10-07T18:32:45.528Z,27.73
2022-10-07T18:35:13.405Z,25.33
2022-10-07T18:37:40.525Z,23.20
2022-10-07T18:40:07.838Z,19.07
2022-10-07T18:42:36.828Z,19.40
2022-10-07T18:45:04.071Z,18.10
2022-10-07T18:47:31.160Z,16.67
2022-10-07T18:49:58.539Z,20.20
2022-10-07T18:52:25.665Z,21.37
2022-10-07T18:54:52.824Z,18.03
2022-10-07T18:57:20.896Z,18.43
2022-10-07T18:59:48.053Z,16.53
2022-10-07T19:02:15.207Z,17.07
2022-10-07T19:04:42.577Z,16.37
2022-10-07T19:07:09.665Z,14.80
2022-10-07T19:09:36.878Z,16.53
2022-10-07T19:12:05.440Z,16.63
2022-10-07T19:14:34.437Z,16.13
2022-10-07T19:17:01.593Z,15.83
2022-10-07T19:19:30.167Z,15.50
2022-10-07T19:21:58.424Z,13.20
2022-10-07T19:24:45.692Z,15.57
2022-10-07T19:27:13.228Z,16.37
2022-10-07T19:29:40.396Z,14.87
2022-10-07T19:32:08.751Z,17.67
2022-10-07T19:34:36.211Z,15.93
2022-10-07T19:37:03.372Z,13.27
2022-10-07T19:39:30.529Z,15.57
2022-10-07T19:41:58.825Z,16.93
2022-10-07T19:44:26.062Z,23.13
2022-10-07T19:46:54.228Z,19.17
2022-10-07T19:49:22.244Z,20.97
2022-10-07T19:51:49.470Z,18.97
2022-10-07T19:54:16.677Z,19.33
2022-10-07T19:56:45.229Z,20.17
2022-10-07T19:59:12.972Z,21.40
2022-10-07T20:01:41.981Z,21.40
2022-10-07T20:04:10.232Z,23.97
2022-10-07T20:06:37.849Z,20.50
2022-10-07T20:09:08.794Z,19.50
2022-10-07T20:11:36.410Z,18.97
2022-10-07T20:14:05.829Z,19.17
2022-10-07T20:16:34.213Z,20.77
2022-10-07T20:19:08.337Z,17.63
2022-10-07T20:21:36.064Z,19.80
2022-10-07T20:24:03.513Z,18.47
2022-10-07T20:26:32.286Z,18.27
2022-10-07T20:29:00.900Z,19.37
2022-10-07T20:31:29.337Z,18.57
2022-10-07T20:33:56.778Z,17.83
2022-10-07T20:36:27.560Z,18.07
2022-10-07T20:39:14.322Z,17.63
2022-10-07T20:42:00.005Z,17.73
2022-10-07T20:44:27.217Z,19.80
2022-10-07T20:46:54.594Z,20.10
2022-10-07T20:49:24.967Z,16.93
2022-10-07T20:51:52.592Z,18.73
2022-10-07T20:54:24.641Z,19.00
2022-10-07T20:56:52.149Z,18.50
2022-10-07T20:59:19.517Z,19.03
2022-10-07T21:01:46.825Z,17.00
2022-10-07T21:04:14.523Z,18.57
2022-10-07T21:06:42.250Z,18.60
2022-10-07T21:09:09.569Z,21.40
2022-10-07T21:11:37.200Z,21.77
2022-10-07T21:14:04.783Z,20.90
2022-10-07T21:16:32.560Z,22.23
2022-10-07T21:18:59.998Z,22.47
2022-10-07T21:21:27.212Z,21.70
2022-10-07T21:23:54.445Z,19.97
2022-10-07T21:26:21.972Z,18.83
2022-10-07T21:28:49.346Z,20.00
2022-10-07T21:31:19.637Z,20.37
2022-10-07T21:33:48.582Z,20.90
2022-10-07T21:36:16.614Z,20.23
2022-10-07T21:38:44.868Z,22.13
2022-10-07T21:41:21.975Z,22.10
2022-10-07T21:43:53.236Z,21.33
2022-10-07T21:46:21.024Z,20.20
2022-10-07T21:48:48.502Z,21.70
2022-10-07T21:51:15.894Z,22.77
2022-10-07T21:53:43.185Z,21.90
2022-10-07T21:56:13.611Z,23.30
2022-10-07T21:58:40.853Z,21.57
2022-10-07T22:01:08.871Z,21.47
2022-10-07T22:03:36.201Z,21.73
2022-10-07T22:06:04.103Z,21.97
2022-10-07T22:08:37.563Z,21.77
2022-10-07T22:11:04.769Z,21.40
2022-10-07T22:13:32.701Z,20.37
2022-10-07T22:16:01.094Z,21.77
2022-10-07T22:18:32.505Z,20.50
2022-10-07T22:21:00.890Z,19.80
2022-10-07T22:23:28.281Z,19.93
2022-10-07T22:26:00.911Z,22.03
2022-10-07T22:28:28.161Z,21.27
2022-10-07T22:30:55.556Z,24.27
2022-10-07T22:33:22.807Z,29.23
2022-10-07T22:35:50.134Z,21.63
2022-10-07T22:38:17.407Z,22.90
2022-10-07T22:40:44.596Z,21.40
2022-10-07T22:43:11.939Z,22.00
2022-10-07T22:45:39.148Z,23.57
2022-10-07T22:48:06.591Z,20.93
2022-10-07T22:50:33.795Z,20.43
2022-10-07T22:53:01.555Z,21.50
2022-10-07T22:55:28.815Z,21.93
2022-10-07T22:57:56.499Z,20.50
2022-10-07T23:00:23.645Z,20.80
2022-10-07T23:02:51.858Z,20.27
2022-10-07T23:05:20.303Z,20.67
2022-10-07T23:07:47.672Z,22.57
2022-10-07T23:10:15.767Z,22.33
2022-10-07T23:12:43.112Z,20.63
2022-10-07T23:15:10.603Z,20.10
2022-10-07T23:17:37.884Z,20.47
2022-10-07T23:20:05.290Z,19.40
2022-10-07T23:22:33.721Z,19.67
2022-10-07T23:25:03.077Z,21.90
2022-10-07T23:27:30.367Z,21.73
2022-10-07T23:29:57.497Z,21.60
2022-10-07T23:32:25.068Z,20.27
2022-10-07T23:34:52.276Z,20.70
2022-10-07T23:37:19.631Z,22.07
2022-10-07T23:39:47.093Z,19.60
2022-10-07T23:42:14.309Z,21.80
2022-10-07T23:44:41.670Z,22.67
2022-10-07T23:47:08.890Z,19.60
2022-10-07T23:49:36.074Z,19.50
2022-10-07T23:52:03.293Z,22.17
2022-10-07T23:54:30.425Z,22.10
2022-10-07T23:56:57.568Z,21.63
2022-10-07T23:59:25.143Z,22.37
